Time;durP1;ratioP1;P1;durP2;ratioP2;P2;SDS_P1;SDS_P2;PMS_P1;PMS_P2;Temp;Humidity;BMP_temperature;BMP_pressure;BME280_temperature;BME280_humidity;BME280_pressure;Samples;Min_cycle;Max_cycle;Signal;HPM_P1;HPM_P2
2022/01/25 00:24:34;;;;;;;17.42;5.38;;;;;;;3.84;78.79;103637.88;4997189;28;97056;-36
2022/01/25 00:30:22;;;;;;;11.85;6.28;;;;;;;3.72;78.58;103622.53;4997930;28;96585;-36
2022/01/25 00:32:21;;;;;;;12.20;8.07;;;;;;;3.55;78.50;103598.22;4996824;28;96849;-36
2022/01/25 00:34:46;;;;;;;10.32;6.55;;;;;;;3.74;78.53;103644.91;4997055;28;97421;-36
2022/01/25 00:37:24;;;;;;;13.40;6.20;;;;;;;3.76;79.05;103637.75;4997362;28;105071;-36
2022/01/25 00:39:49;;;;;;;9.85;6.90;;;;;;;3.80;78.52;103641.38;4997926;28;96599;-36
2022/01/25 00:42:15;;;;;;;12.48;7.55;;;;;;;3.74;78.39;103620.78;4997815;28;96744;-36
2022/01/25 00:44:45;;;;;;;27.42;7.75;;;;;;;3.82;78.50;103639.63;4997309;28;97866;-36
2022/01/25 00:47:10;;;;;;;13.18;6.88;;;;;;;3.74;78.79;103626.13;4997331;28;98070;-36
2022/01/25 00:49:39;;;;;;;13.73;7.88;;;;;;;3.65;78.64;103612.63;4995777;28;105554;-36
2022/01/25 00:53:54;;;;;;;11.60;6.55;;;;;;;3.73;78.88;103624.31;4996568;28;96822;-36
2022/01/25 00:55:11;;;;;;;10.77;6.25;;;;;;;3.66;79.07;103616.19;4996814;28;98913;-36
2022/01/25 00:57:37;;;;;;;11.10;7.45;;;;;;;3.66;78.92;103610.84;4995615;28;100955;-36
2022/01/25 01:00:06;;;;;;;11.00;7.00;;;;;;;3.67;78.63;103610.88;4997100;28;96517;-36
2022/01/25 01:02:31;;;;;;;12.23;7.50;;;;;;;3.61;78.64;103609.00;4995186;28;97837;-36
2022/01/25 01:04:57;;;;;;;15.50;8.32;;;;;;;3.75;78.82;103624.34;4997092;28;97484;-36
2022/01/25 01:07:23;;;;;;;17.20;9.63;;;;;;;3.73;79.21;103624.31;4996868;28;99467;-36
2022/01/25 01:09:51;;;;;;;15.52;8.88;;;;;;;3.74;78.90;103623.47;4997156;28;96477;-36
2022/01/25 01:12:45;;;;;;;13.63;7.78;;;;;;;3.69;79.14;103605.50;4997419;28;96733;-36
2022/01/25 01:28:52;;;;;;;15.40;7.03;;;;;;;3.72;79.06;103608.22;4997180;28;99413;-36
2022/01/25 01:31:29;;;;;;;15.82;7.00;;;;;;;3.57;79.12;103574.97;4997367;28;96482;-36
2022/01/25 01:37:00;;;;;;;19.35;8.57;;;;;;;3.81;79.11;103622.66;4996572;28;97885;-36
2022/01/25 01:45:27;;;;;;;8.05;4.47;;;;;;;3.78;78.77;103617.22;4997329;28;97219;-36
2022/01/25 01:47:44;;;;;;;17.33;6.10;;;;;;;3.67;79.07;103585.81;4995789;28;97272;-36
2022/01/25 01:50:15;;;;;;;12.25;6.43;;;;;;;3.68;79.18;103588.53;4996578;28;97859;-36
2022/01/25 01:52:40;;;;;;;11.02;6.00;;;;;;;3.71;78.74;103595.69;4994837;28;96610;-36
2022/01/25 01:55:07;;;;;;;9.07;5.90;;;;;;;3.67;79.37;103602.81;4996770;28;96763;-36
2022/01/25 01:57:32;;;;;;;18.25;9.05;;;;;;;3.63;79.05;103579.53;4994688;28;100621;-36
2022/01/25 01:59:58;;;;;;;15.27;7.90;;;;;;;3.70;79.08;103596.59;4996209;28;97256;-36
2022/01/25 02:02:23;;;;;;;22.58;9.10;;;;;;;3.64;79.63;103575.97;4994469;28;100203;-36
2022/01/25 02:04:49;;;;;;;16.45;8.35;;;;;;;3.75;79.54;103590.41;4994962;28;96911;-36
2022/01/25 02:07:14;;;;;;;12.15;8.20;;;;;;;3.77;79.57;103587.75;4996175;28;97449;-36
2022/01/25 02:09:39;;;;;;;18.17;8.82;;;;;;;3.78;79.08;103606.50;4996762;28;97240;-36
2022/01/25 02:12:06;;;;;;;15.90;9.10;;;;;;;3.67;79.01;103581.38;4996328;28;96666;-36
2022/01/25 02:14:35;;;;;;;15.65;8.85;;;;;;;3.66;79.15;103574.19;4994813;28;96810;-36
2022/01/25 02:17:53;;;;;;;20.45;9.95;;;;;;;3.79;79.25;103594.91;4995653;28;97979;-36
2022/01/25 02:22:53;;;;;;;12.70;7.78;;;;;;;3.79;79.41;103602.97;4996184;28;96734;-36
2022/01/25 02:25:18;;;;;;;18.20;8.48;;;;;;;3.78;79.73;103602.94;4996335;28;96747;-36
2022/01/25 02:27:43;;;;;;;12.93;7.65;;;;;;;3.69;79.56;103565.28;4995865;28;97934;-36
2022/01/25 02:30:10;;;;;;;13.80;7.65;;;;;;;3.79;79.35;103589.56;4995761;28;97464;-36
2022/01/25 02:32:35;;;;;;;13.68;7.40;;;;;;;3.83;79.73;103587.78;4994674;28;96651;-36
2022/01/25 02:35:02;;;;;;;13.45;8.80;;;;;;;3.81;79.52;103579.75;4996312;28;96821;-36
2022/01/25 02:37:28;;;;;;;12.68;7.85;;;;;;;3.78;79.33;103576.13;4995410;28;97935;-36
2022/01/25 02:40:04;;;;;;;20.40;10.27;;;;;;;3.78;79.54;103574.34;4995787;28;97819;-36
2022/01/25 02:42:29;;;;;;;20.42;9.30;;;;;;;3.79;79.47;103580.59;4993883;28;96551;-36
2022/01/25 02:44:54;;;;;;;16.30;9.27;;;;;;;3.68;79.18;103556.38;4995400;28;96806;-36
2022/01/25 02:50:05;;;;;;;13.63;7.25;;;;;;;3.84;79.19;103586.94;4995683;28;96980;-36
2022/01/25 02:52:31;;;;;;;20.48;10.63;;;;;;;3.66;79.44;103559.91;4994275;28;96529;-36
2022/01/25 02:54:56;;;;;;;15.35;7.95;;;;;;;3.65;79.66;103561.69;4995995;28;96880;-36
2022/01/25 02:57:21;;;;;;;17.02;7.82;;;;;;;3.78;79.51;103584.16;4995326;28;97911;-36
2022/01/25 02:59:47;;;;;;;16.55;7.93;;;;;;;3.77;79.66;103591.31;4995848;28;97828;-36
2022/01/25 03:02:12;;;;;;;16.25;7.88;;;;;;;3.64;79.68;103570.59;4994730;28;102798;-36
2022/01/25 03:04:37;;;;;;;15.07;7.70;;;;;;;3.77;79.72;103596.69;4995366;28;96779;-36
2022/01/25 03:07:03;;;;;;;16.15;7.70;;;;;;;3.65;79.56;103580.47;4995161;28;97399;-36
2022/01/25 03:09:29;;;;;;;16.83;9.10;;;;;;;3.76;79.39;103592.19;4995354;28;97584;-36
2022/01/25 03:11:56;;;;;;;14.48;7.68;;;;;;;3.78;79.69;103606.50;4995523;28;96501;-36
2022/01/25 03:14:23;;;;;;;20.20;9.10;;;;;;;3.78;79.95;103600.25;4995306;28;96875;-36
2022/01/25 03:17:06;;;;;;;17.10;8.55;;;;;;;3.66;79.78;103574.19;4995040;28;97993;-36
2022/01/25 03:21:59;;;;;;;15.20;8.07;;;;;;;3.66;80.05;103567.94;4995487;28;96658;-36
2022/01/25 03:24:25;;;;;;;21.30;8.45;;;;;;;3.73;79.92;103586.78;4994129;28;96844;-36
2022/01/25 03:26:50;;;;;;;16.92;6.90;;;;;;;3.65;80.08;103569.75;4995068;28;97882;-36
2022/01/25 03:29:17;;;;;;;21.13;10.75;;;;;;;3.78;79.74;103587.75;4993531;28;98916;-36
2022/01/25 03:31:42;;;;;;;15.50;8.65;;;;;;;3.75;79.79;103582.34;4993258;28;96626;-36
2022/01/25 03:34:08;;;;;;;13.57;7.55;;;;;;;3.70;80.16;103576.03;4995324;28;96818;-36
2022/01/25 03:36:33;;;;;;;14.88;7.25;;;;;;;3.69;80.07;103562.63;4995022;28;97548;-36
2022/01/25 03:38:59;;;;;;;15.95;7.38;;;;;;;3.79;79.88;103584.19;4994507;28;99210;-36
2022/01/25 03:41:25;;;;;;;16.70;9.02;;;;;;;3.83;80.09;103586.00;4994589;28;104098;-36
2022/01/25 03:43:55;;;;;;;16.48;8.23;;;;;;;3.70;79.85;103562.66;4994987;28;96686;-36
2022/01/25 03:51:37;;;;;;;14.52;7.15;;;;;;;3.68;80.25;103560.84;4995404;28;96482;-36
2022/01/25 03:54:05;;;;;;;17.25;8.45;;;;;;;3.74;79.63;103566.25;4995045;28;96909;-36
2022/01/25 03:56:31;;;;;;;13.25;7.20;;;;;;;3.74;80.03;103569.84;4992467;28;97984;-36
2022/01/25 03:58:57;;;;;;;12.63;7.53;;;;;;;3.57;80.04;103542.81;4992794;28;101282;-36
2022/01/25 04:01:22;;;;;;;18.98;9.40;;;;;;;3.67;80.17;103559.00;4994470;28;96629;-36
2022/01/25 04:04:00;;;;;;;15.07;8.50;;;;;;;3.75;79.79;103574.31;4994863;28;96461;-36
2022/01/25 04:06:30;;;;;;;13.55;8.27;;;;;;;3.66;80.10;103563.47;4994536;28;97907;-36
2022/01/25 04:08:55;;;;;;;18.38;9.93;;;;;;;3.68;79.86;103567.09;4992726;28;101802;-37
2022/01/25 04:11:21;;;;;;;14.32;7.32;;;;;;;3.62;80.58;103550.91;4994552;28;96572;-36
2022/01/25 04:13:46;;;;;;;17.55;9.35;;;;;;;3.67;79.95;103559.00;4994876;28;96874;-36
2022/01/25 04:16:18;;;;;;;14.15;8.23;;;;;;;3.79;80.08;103578.84;4992657;28;106393;-36
2022/01/25 04:19:35;;;;;;;17.25;8.23;;;;;;;3.80;80.26;103582.41;4992917;28;98977;-36
2022/01/25 04:26:49;;;;;;;23.70;7.78;;;;;;;3.64;80.01;103549.16;4994598;28;97073;-36
2022/01/25 04:29:15;;;;;;;17.25;8.55;;;;;;;3.77;79.91;103561.81;4994124;28;97764;-36
2022/01/25 04:31:41;;;;;;;16.38;8.43;;;;;;;3.65;79.98;103536.66;4994519;28;96743;-36
2022/01/25 04:34:43;;;;;;;15.00;7.03;;;;;;;3.69;79.87;103551.91;4992741;28;96942;-36
2022/01/25 04:54:05;;;;;;;17.58;8.73;;;;;;;3.74;79.90;103558.19;4994414;28;96538;-36
2022/01/25 04:56:29;;;;;;;15.03;7.50;;;;;;;3.75;79.76;103558.22;4993553;28;96829;-36
2022/01/25 04:59:07;;;;;;;21.17;8.98;;;;;;;3.70;80.14;103546.56;4992224;28;101183;-36
2022/01/25 05:01:33;;;;;;;15.00;8.40;;;;;;;3.66;79.62;103539.34;4993240;28;97856;-36
2022/01/25 05:04:09;;;;;;;15.57;7.57;;;;;;;3.63;79.55;103527.72;4993491;28;96714;-36
2022/01/25 05:06:34;;;;;;;16.90;8.05;;;;;;;3.73;79.43;103549.25;4992973;28;96624;-35
2022/01/25 05:09:11;;;;;;;17.50;8.93;;;;;;;3.71;78.77;103553.72;4994719;28;97805;-36
2022/01/25 05:11:41;;;;;;;12.18;6.60;;;;;;;3.76;78.90;103549.28;4995476;28;101236;-36
2022/01/25 05:16:37;;;;;;;24.67;9.00;;;;;;;3.64;79.55;103530.41;4997261;28;96743;-36
2022/01/25 05:24:36;;;;;;;21.02;8.32;;;;;;;3.70;79.41;103543.00;4994659;28;96521;-36
2022/01/25 05:27:02;;;;;;;17.00;8.38;;;;;;;3.76;79.21;103543.03;4995775;28;96789;-36
2022/01/25 05:29:28;;;;;;;14.52;7.97;;;;;;;3.64;79.57;103533.06;4995364;28;101689;-36
2022/01/25 05:31:53;;;;;;;20.48;9.45;;;;;;;3.74;79.14;103544.78;4997109;28;97828;-36
2022/01/25 05:34:19;;;;;;;26.65;9.15;;;;;;;3.67;79.05;103535.81;4997165;28;96658;-36
2022/01/25 05:36:44;;;;;;;16.48;9.63;;;;;;;3.61;78.93;103525.00;4996423;28;110762;-36
2022/01/25 05:39:27;;;;;;;20.95;8.13;;;;;;;3.61;79.53;103527.69;4996015;28;99733;-36
2022/01/25 05:42:00;;;;;;;15.20;8.45;;;;;;;3.62;79.50;103526.81;4995229;28;100866;-36
2022/01/25 05:44:42;;;;;;;18.38;8.77;;;;;;;3.73;78.65;103554.63;4995507;28;96606;-36
2022/01/25 05:47:08;;;;;;;17.65;7.97;;;;;;;3.72;79.50;103538.50;4996787;28;96638;-36
2022/01/25 05:49:37;;;;;;;21.15;9.25;;;;;;;3.77;79.31;103555.56;4994926;28;101214;-36
2022/01/25 05:52:09;;;;;;;17.67;8.80;;;;;;;3.74;79.27;103542.13;4995042;28;101021;-36
2022/01/25 05:54:35;;;;;;;27.30;10.60;;;;;;;3.77;79.32;103560.94;4996956;28;97326;-36
2022/01/25 05:57:01;;;;;;;14.25;8.43;;;;;;;3.75;79.02;103547.50;4995652;28;96813;-36
2022/01/25 05:59:26;;;;;;;18.75;8.85;;;;;;;3.55;79.43;103514.22;4994527;28;100129;-36
2022/01/25 06:01:52;;;;;;;17.30;8.18;;;;;;;3.73;78.94;103541.22;4994925;28;120463;-36
2022/01/25 06:04:18;;;;;;;20.70;9.40;;;;;;;3.64;78.98;103532.19;4995549;28;96722;-36
2022/01/25 06:06:44;;;;;;;23.83;10.57;;;;;;;3.72;79.22;103552.84;4996386;28;96794;-36
2022/01/25 06:09:09;;;;;;;23.30;10.70;;;;;;;3.76;79.16;103551.06;4996183;28;97972;-36
2022/01/25 06:11:35;;;;;;;19.38;9.23;;;;;;;3.73;79.11;103554.63;4996389;28;97322;-36
2022/01/25 06:14:01;;;;;;;22.17;8.88;;;;;;;3.63;79.17;103538.44;4996426;28;96631;-36
2022/01/25 06:16:29;;;;;;;25.67;11.02;;;;;;;3.75;79.36;103558.22;4994982;28;96796;-36
2022/01/25 06:19:04;;;;;;;18.38;8.02;;;;;;;3.75;78.95;103560.00;4995852;28;97970;-36
2022/01/25 06:21:29;;;;;;;18.52;10.82;;;;;;;3.67;78.11;103556.34;4993880;28;125626;-36
2022/01/25 06:23:55;;;;;;;17.05;7.63;;;;;;;3.71;78.92;103559.06;4996253;28;96561;-36
2022/01/25 06:26:21;;;;;;;26.65;9.32;;;;;;;3.60;78.83;103537.53;4996232;28;96738;-36
2022/01/25 06:28:46;;;;;;;17.40;7.45;;;;;;;3.58;78.68;103536.59;4993716;28;100909;-36
2022/01/25 06:31:12;;;;;;;18.80;8.40;;;;;;;3.69;78.94;103558.16;4995256;28;113307;-36
2022/01/25 06:33:42;;;;;;;30.15;13.60;;;;;;;3.58;77.94;103546.44;4996193;28;96604;-36
2022/01/25 06:36:08;;;;;;;20.00;10.40;;;;;;;3.55;78.13;103541.00;4996218;28;96567;-36
2022/01/25 06:38:34;;;;;;;22.75;10.77;;;;;;;3.69;78.60;103568.88;4994368;28;100812;-36
2022/01/25 06:40:59;;;;;;;20.48;9.48;;;;;;;3.69;78.26;103565.28;4994802;28;126814;-37
2022/01/25 06:43:25;;;;;;;21.77;10.90;;;;;;;3.69;78.38;103567.97;4996101;28;96591;-36
2022/01/25 06:45:56;;;;;;;21.55;9.77;;;;;;;3.51;78.99;103532.06;4996448;28;96812;-36
2022/01/25 06:48:22;;;;;;;19.83;8.40;;;;;;;3.68;78.73;103561.72;4995572;28;99390;-36
2022/01/25 06:50:48;;;;;;;27.27;10.50;;;;;;;3.66;78.78;103563.47;4995458;28;97344;-36
2022/01/25 06:53:13;;;;;;;16.15;8.85;;;;;;;3.71;79.07;103560.84;4993727;28;96505;-36
2022/01/25 06:55:40;;;;;;;22.08;10.23;;;;;;;3.72;78.84;103568.94;4995312;28;96761;-36
2022/01/25 06:58:06;;;;;;;20.25;10.18;;;;;;;3.55;78.71;103538.34;4993603;28;100989;-36
2022/01/25 07:00:31;;;;;;;17.15;10.57;;;;;;;3.71;78.59;103571.56;4993933;28;100726;-36
2022/01/25 07:02:56;;;;;;;21.88;8.55;;;;;;;3.67;78.83;103554.56;4988711;28;98728;-36
2022/01/25 07:05:22;;;;;;;33.13;9.52;;;;;;;3.68;78.97;103561.72;4995665;28;96576;-36
2022/01/25 07:07:47;;;;;;;22.85;8.93;;;;;;;3.64;78.71;103567.03;4995148;28;100180;-36
2022/01/25 07:10:13;;;;;;;20.13;9.63;;;;;;;3.71;78.57;103584.97;4995726;28;97732;-36
2022/01/25 07:12:38;;;;;;;23.35;11.35;;;;;;;3.67;78.94;103573.34;4995502;28;96595;-36
2022/01/25 07:15:04;;;;;;;18.23;9.10;;;;;;;3.74;78.97;103574.28;4995586;28;96745;-36
2022/01/25 07:17:29;;;;;;;16.67;8.13;;;;;;;3.72;79.06;103578.72;4994696;28;97870;-36
2022/01/25 07:19:55;;;;;;;24.17;9.75;;;;;;;3.74;79.14;103571.59;4994236;28;122099;-36
2022/01/25 07:22:20;;;;;;;23.27;10.52;;;;;;;3.61;78.42;103566.09;4994687;28;108818;-36
2022/01/25 07:24:45;;;;;;;16.67;7.93;;;;;;;3.68;78.72;103576.91;4995139;28;98851;-36
2022/01/25 07:27:10;;;;;;;16.40;8.07;;;;;;;3.56;78.82;103561.59;4994785;28;99586;-36
2022/01/25 07:29:42;;;;;;;22.10;8.60;;;;;;;3.70;78.80;103594.81;4995065;28;99840;-36
2022/01/25 07:32:08;;;;;;;19.92;8.02;;;;;;;3.67;78.64;103593.84;4994480;28;96615;-36
2022/01/25 07:34:33;;;;;;;11.82;7.03;;;;;;;3.62;78.87;103585.75;4994000;28;97792;-36
2022/01/25 07:36:58;;;;;;;23.70;9.60;;;;;;;3.64;78.91;103586.69;4994685;28;102175;-36
2022/01/25 07:39:26;;;;;;;18.48;8.63;;;;;;;3.57;78.42;103574.09;4993117;28;99165;-36
2022/01/25 07:41:56;;;;;;;24.23;10.13;;;;;;;3.55;78.55;103578.53;4993114;28;96655;-36
2022/01/25 07:44:26;;;;;;;27.65;10.55;;;;;;;3.64;78.59;103591.16;4993566;28;96565;-36
2022/01/25 07:46:51;;;;;;;22.73;8.65;;;;;;;3.54;78.88;103568.72;4994621;28;97977;-36
2022/01/25 07:49:17;;;;;;;18.30;9.52;;;;;;;3.66;78.58;103592.97;4992233;28;127144;-36
2022/01/25 07:51:42;;;;;;;25.17;8.82;;;;;;;3.53;78.10;103565.13;4995152;28;96697;-36
2022/01/25 07:54:07;;;;;;;22.77;10.43;;;;;;;3.52;77.94;103567.78;4993913;28;110971;-36
2022/01/25 07:56:33;;;;;;;34.20;14.88;;;;;;;3.50;78.57;103575.78;4993863;28;121783;-36
2022/01/25 07:58:58;;;;;;;21.75;8.57;;;;;;;3.45;78.72;103574.84;4994652;28;97869;-36
2022/01/25 08:01:24;;;;;;;13.68;6.90;;;;;;;3.50;77.90;103583.84;4994428;28;96778;-35
2022/01/25 08:03:49;;;;;;;22.30;8.98;;;;;;;3.56;78.08;103591.06;4993133;28;96899;-36
2022/01/25 08:06:14;;;;;;;17.70;8.35;;;;;;;3.46;78.40;103570.41;4994004;28;97960;-36
2022/01/25 08:08:41;;;;;;;18.67;8.88;;;;;;;3.59;78.73;103583.94;4994176;28;97792;-36
2022/01/25 08:11:07;;;;;;;25.73;8.30;;;;;;;3.50;78.29;103562.41;4993416;28;96765;-36
2022/01/25 08:13:32;;;;;;;21.30;8.15;;;;;;;3.54;78.79;103558.00;4993205;28;96813;-36
2022/01/25 08:15:58;;;;;;;17.58;10.02;;;;;;;3.52;78.39;103555.28;4994391;28;97913;-36
2022/01/25 08:18:23;;;;;;;20.17;6.78;;;;;;;3.68;78.58;103580.47;4994306;28;98169;-36
2022/01/25 08:20:48;;;;;;;21.13;9.88;;;;;;;3.56;78.93;103556.22;4994131;28;105049;-36
2022/01/25 08:23:15;;;;;;;21.40;9.65;;;;;;;3.60;78.75;103577.72;4994737;28;96770;-36
2022/01/25 08:25:41;;;;;;;22.30;8.27;;;;;;;3.58;78.60;103565.19;4994175;28;98063;-36
2022/01/25 08:28:06;;;;;;;16.85;8.68;;;;;;;3.72;78.65;103586.75;4994229;28;96919;-36
2022/01/25 08:30:32;;;;;;;20.98;8.65;;;;;;;3.61;78.73;103568.78;4993533;28;107399;-36
2022/01/25 08:32:58;;;;;;;20.52;9.25;;;;;;;3.67;78.71;103576.03;4994512;28;96747;-36
2022/01/25 08:35:24;;;;;;;26.45;10.30;;;;;;;3.68;78.74;103571.56;4992830;28;100676;-36
2022/01/25 08:37:49;;;;;;;19.88;10.30;;;;;;;3.69;78.88;103574.22;4993945;28;101280;-36
2022/01/25 08:40:14;;;;;;;23.55;9.63;;;;;;;3.69;78.42;103571.53;4994447;28;96623;-36
2022/01/25 08:42:40;;;;;;;19.55;8.45;;;;;;;3.56;78.29;103550.88;4994475;28;96807;-36
2022/01/25 08:45:07;;;;;;;22.00;10.32;;;;;;;3.56;78.43;103551.75;4996385;28;97822;-36
2022/01/25 08:47:32;;;;;;;20.40;10.68;;;;;;;3.63;78.39;103560.78;4996311;28;102259;-36
2022/01/25 08:49:58;;;;;;;22.88;8.48;;;;;;;3.56;78.42;103543.72;4997898;28;96614;-36
2022/01/25 08:52:23;;;;;;;21.30;9.48;;;;;;;3.60;78.52;103552.72;4997611;28;96806;-36
2022/01/25 08:54:49;;;;;;;21.20;9.00;;;;;;;3.66;78.22;103565.28;4996115;28;120190;-36
2022/01/25 08:57:14;;;;;;;17.95;8.50;;;;;;;3.72;78.31;103578.72;4997330;28;97753;-36
2022/01/25 08:59:40;;;;;;;28.27;11.30;;;;;;;3.55;78.41;103552.66;4997718;28;96828;-36
2022/01/25 09:02:05;;;;;;;16.95;7.65;;;;;;;3.65;78.73;103563.44;4996649;28;99814;-36
2022/01/25 09:04:31;;;;;;;12.18;6.30;;;;;;;3.75;78.47;103585.03;4997235;28;97944;-36
2022/01/25 09:06:56;;;;;;;14.20;7.68;;;;;;;3.63;78.27;103568.81;4996987;28;97885;-36
2022/01/25 09:09:22;;;;;;;23.08;9.32;;;;;;;3.77;78.21;103580.59;4997289;28;96455;-36
2022/01/25 09:11:48;;;;;;;17.98;8.05;;;;;;;3.63;78.66;103560.78;4997814;28;96699;-36
2022/01/25 09:14:14;;;;;;;22.20;9.98;;;;;;;3.66;78.10;103568.84;4996649;28;113118;-36
2022/01/25 09:16:40;;;;;;;21.65;10.18;;;;;;;3.73;78.33;103584.13;4996836;28;105370;-36
2022/01/25 09:19:06;;;;;;;18.23;8.93;;;;;;;3.69;78.08;103579.59;4995314;28;96626;-36
2022/01/25 09:21:31;;;;;;;16.63;6.88;;;;;;;3.64;78.03;103573.28;4995542;28;96787;-36
2022/01/25 09:23:57;;;;;;;18.92;8.88;;;;;;;3.75;77.96;103594.88;4996877;28;97520;-36
2022/01/25 09:26:23;;;;;;;22.30;9.40;;;;;;;3.72;77.90;103600.16;4996718;28;99417;-36
2022/01/25 09:28:50;;;;;;;23.75;8.75;;;;;;;3.63;78.19;103573.28;4997211;28;96456;-36
2022/01/25 09:31:16;;;;;;;20.70;9.48;;;;;;;3.76;78.36;103602.00;4995724;28;96898;-36
2022/01/25 09:33:41;;;;;;;22.23;9.02;;;;;;;3.65;77.96;103582.22;4995429;28;97848;-36
2022/01/25 09:36:07;;;;;;;19.40;8.38;;;;;;;3.62;78.09;103583.09;4996853;28;97488;-36
2022/01/25 09:38:32;;;;;;;13.90;7.75;;;;;;;3.74;78.16;103610.06;4995606;28;97069;-36
2022/01/25 09:40:58;;;;;;;11.52;5.70;;;;;;;3.73;77.60;103600.19;4997071;28;96843;-36
2022/01/25 09:43:24;;;;;;;20.42;9.48;;;;;;;3.75;78.29;103600.22;4996255;28;97866;-36
2022/01/25 09:45:50;;;;;;;23.05;11.90;;;;;;;3.65;77.45;103587.56;4996571;28;97379;-36
2022/01/25 09:48:16;;;;;;;21.63;8.63;;;;;;;3.75;77.48;103608.25;4996958;28;96675;-36
2022/01/25 09:50:42;;;;;;;20.52;8.70;;;;;;;3.71;78.10;103606.41;4995182;28;96874;-36
2022/01/25 09:53:08;;;;;;;22.40;10.05;;;;;;;3.64;77.51;103596.50;4995376;28;97981;-36
2022/01/25 09:55:39;;;;;;;18.58;7.55;;;;;;;3.60;77.89;103584.88;4994463;28;100932;-36
2022/01/25 09:58:04;;;;;;;14.90;7.38;;;;;;;3.64;77.78;103596.50;4995129;28;96555;-36
2022/01/25 10:00:33;;;;;;;19.13;8.98;;;;;;;3.64;77.52;103593.84;4996863;28;96779;-36
2022/01/25 10:03:11;;;;;;;12.82;7.43;;;;;;;3.67;77.61;103609.94;4994079;28;100733;-36
2022/01/25 10:05:43;;;;;;;22.42;9.05;;;;;;;3.71;78.36;103603.75;4996409;28;97879;-36
2022/01/25 10:08:10;;;;;;;15.10;6.35;;;;;;;3.84;78.13;103640.53;4996152;28;96470;-36
2022/01/25 10:10:41;;;;;;;23.50;9.50;;;;;;;3.70;77.60;103605.53;4996518;28;96735;-36
2022/01/25 10:13:22;;;;;;;18.27;9.10;;;;;;;3.83;77.69;103639.63;4994938;28;99282;-36
2022/01/25 10:15:59;;;;;;;21.38;9.82;;;;;;;3.85;78.03;103631.59;4994375;28;100874;-36
2022/01/25 10:18:38;;;;;;;23.08;7.93;;;;;;;3.88;78.06;103628.94;4996364;28;96586;-36
2022/01/25 10:21:03;;;;;;;12.13;6.90;;;;;;;3.78;78.22;103610.97;4994876;28;96671;-36
2022/01/25 10:23:31;;;;;;;15.57;9.07;;;;;;;3.79;78.18;103616.38;4996085;28;97455;-36
2022/01/25 10:26:01;;;;;;;20.40;8.40;;;;;;;3.90;77.96;103642.38;4994853;28;100855;-36
2022/01/25 10:28:29;;;;;;;23.50;10.35;;;;;;;3.78;77.82;103619.91;4996116;28;96546;-36
2022/01/25 10:30:57;;;;;;;13.57;7.53;;;;;;;3.87;77.73;103629.84;4994751;28;96781;-36
2022/01/25 10:33:27;;;;;;;22.70;10.95;;;;;;;3.92;77.76;103637.94;4993819;28;100749;-36
2022/01/25 10:35:53;;;;;;;17.88;8.02;;;;;;;3.78;78.10;103609.19;4994348;28;101970;-36
2022/01/25 10:38:20;;;;;;;26.02;9.20;;;;;;;3.94;77.58;103649.59;4994679;28;96674;-36
2022/01/25 10:40:54;;;;;;;19.60;10.05;;;;;;;3.79;78.03;103623.47;4995740;28;96819;-36
2022/01/25 10:43:24;;;;;;;16.92;8.00;;;;;;;3.82;77.68;103637.84;4994247;28;101192;-36
2022/01/25 10:46:09;;;;;;;18.33;9.38;;;;;;;3.93;77.90;103655.81;4994040;28;98825;-36
2022/01/25 10:48:36;;;;;;;14.10;7.20;;;;;;;3.86;77.09;103648.59;4995917;28;96660;-36
2022/01/25 10:51:13;;;;;;;24.25;8.15;;;;;;;3.88;77.34;103652.19;4994692;28;96901;-37
2022/01/25 10:53:39;;;;;;;18.45;8.52;;;;;;;3.78;77.95;103632.41;4995283;28;98353;-36
2022/01/25 10:56:07;;;;;;;14.77;7.45;;;;;;;3.90;77.56;103648.63;4995576;28;97917;-36
2022/01/25 10:58:41;;;;;;;24.45;9.23;;;;;;;3.77;77.31;103618.13;4993612;28;96780;-36
2022/01/25 11:01:09;;;;;;;13.13;5.90;;;;;;;3.77;77.30;103630.63;4994262;28;96778;-36
2022/01/25 11:03:40;;;;;;;13.43;6.20;;;;;;;3.85;76.40;103641.44;4993427;28;100850;-36
2022/01/25 11:06:12;;;;;;;23.08;9.13;;;;;;;3.75;77.04;103625.25;4993306;28;100931;-36
2022/01/25 11:08:38;;;;;;;25.20;10.13;;;;;;;3.91;76.30;103639.72;4993968;28;96821;-36
2022/01/25 11:11:07;;;;;;;18.55;8.15;;;;;;;3.92;77.21;103643.31;4993957;28;96841;-36
2022/01/25 11:13:36;;;;;;;27.88;11.25;;;;;;;3.76;77.60;103610.94;4995288;28;98404;-36
2022/01/25 11:16:11;;;;;;;20.67;9.98;;;;;;;3.87;76.49;103631.63;4995475;28;99203;-36
2022/01/25 11:18:37;;;;;;;21.98;9.45;;;;;;;3.81;77.13;103619.97;4994013;28;96682;-36
2022/01/25 11:21:06;;;;;;;17.10;9.07;;;;;;;3.73;76.91;103610.03;4994016;28;96798;-36
2022/01/25 11:23:33;;;;;;;31.38;10.35;;;;;;;3.96;77.20;103658.56;4994624;28;97400;-36
2022/01/25 11:26:02;;;;;;;23.27;9.90;;;;;;;3.92;77.37;103629.91;4993499;28;100275;-36
2022/01/25 11:28:30;;;;;;;20.63;7.38;;;;;;;3.87;77.27;103621.81;4993764;28;96583;-36
2022/01/25 11:30:59;;;;;;;16.20;7.85;;;;;;;3.97;76.97;103633.53;4994835;28;96798;-36
2022/01/25 11:33:26;;;;;;;24.88;9.18;;;;;;;3.93;77.07;103619.22;4993303;28;101071;-36
2022/01/25 11:35:51;;;;;;;21.92;11.10;;;;;;;3.97;77.76;103622.81;4993521;28;100877;-36
2022/01/25 11:38:31;;;;;;;17.88;8.48;;;;;;;4.01;77.74;103625.53;4994227;28;114909;-36
2022/01/25 11:40:56;;;;;;;15.70;6.45;;;;;;;4.06;78.02;103633.63;4994091;28;96700;-36
2022/01/25 11:43:21;;;;;;;22.65;9.65;;;;;;;4.02;77.69;103629.09;4994221;28;108260;-36
2022/01/25 11:45:49;;;;;;;18.83;7.97;;;;;;;3.87;77.54;103604.81;4992540;28;127135;-36
2022/01/25 11:48:21;;;;;;;18.58;9.57;;;;;;;4.04;77.69;103625.56;4994523;28;96494;-36
2022/01/25 11:50:46;;;;;;;18.52;8.55;;;;;;;3.91;77.66;103602.19;4993528;28;96679;-36
2022/01/25 11:53:16;;;;;;;22.48;8.95;;;;;;;3.99;77.70;103613.00;4994568;28;97965;-36
2022/01/25 11:55:49;;;;;;;22.35;7.50;;;;;;;4.00;77.68;103612.09;4992881;28;100672;-36
2022/01/25 11:58:32;;;;;;;21.45;9.25;;;;;;;3.99;77.39;103615.69;4993295;28;96842;-36
2022/01/25 12:01:03;;;;;;;20.67;8.73;;;;;;;3.93;77.55;103597.75;4994811;28;96742;-36
2022/01/25 12:03:32;;;;;;;20.27;9.03;;;;;;;3.97;77.40;103599.56;4993690;28;99416;-36
2022/01/25 12:06:07;;;;;;;15.82;9.00;;;;;;;4.03;76.83;103601.44;4993309;28;101119;-36
2022/01/25 12:08:49;;;;;;;23.58;10.63;;;;;;;4.05;77.03;103607.69;4993299;28;96597;-36
2022/01/25 12:11:43;;;;;;;15.77;6.80;;;;;;;4.04;76.88;103611.25;4994877;28;96470;-36
2022/01/25 12:14:18;;;;;;;17.27;6.88;;;;;;;4.06;77.28;103614.84;4992455;28;101382;-36
2022/01/25 12:17:10;;;;;;;18.80;9.32;;;;;;;4.01;76.58;103605.88;4992719;28;100937;-36
2022/01/25 12:19:50;;;;;;;16.33;7.78;;;;;;;4.01;76.93;103608.56;4996554;28;96658;-36
2022/01/25 12:22:41;;;;;;;22.17;8.10;;;;;;;4.02;77.00;103595.13;4996865;28;96810;-36
2022/01/25 12:27:39;;;;;;;18.50;7.93;;;;;;;4.07;77.22;103605.91;4997851;28;97848;-36
2022/01/25 12:30:12;;;;;;;15.60;7.55;;;;;;;3.93;77.23;103567.34;4996571;28;97120;-36
2022/01/25 12:33:02;;;;;;;15.43;8.55;;;;;;;4.07;76.77;103592.50;4996950;28;96661;-36
2022/01/25 12:35:46;;;;;;;22.35;8.98;;;;;;;4.10;76.64;103597.00;4996020;28;101155;-36
2022/01/25 12:38:38;;;;;;;13.35;6.55;;;;;;;4.15;77.24;103584.56;4996258;28;100906;-35
2022/01/25 12:41:15;;;;;;;12.23;5.80;;;;;;;4.15;76.76;103588.13;4993987;28;96803;-36
2022/01/25 12:43:53;;;;;;;23.17;8.27;;;;;;;4.14;77.09;103580.94;4996129;28;96671;-36
2022/01/25 12:46:31;;;;;;;21.60;11.30;;;;;;;4.07;77.01;103567.47;4997542;28;97942;-36
2022/01/25 12:48:59;;;;;;;18.23;8.35;;;;;;;4.11;77.11;103580.03;4996056;28;100738;-36
2022/01/25 12:51:26;;;;;;;19.65;9.68;;;;;;;4.14;77.03;103577.38;4996278;28;96631;-36
2022/01/25 12:53:54;;;;;;;23.95;9.98;;;;;;;4.10;77.05;103570.19;4997648;28;96763;-36
2022/01/25 12:56:21;;;;;;;23.20;11.38;;;;;;;4.09;76.89;103563.91;4995853;28;100886;-36
2022/01/25 12:58:50;;;;;;;25.20;10.57;;;;;;;4.10;76.81;103557.69;4997358;28;97918;-36
2022/01/25 13:01:18;;;;;;;30.77;12.20;;;;;;;3.96;76.79;103536.09;4996220;28;96667;-36
2022/01/25 13:03:50;;;;;;;20.95;8.68;;;;;;;4.05;76.72;103548.66;4996923;28;96970;-36